Time;durP1;ratioP1;P1;durP2;ratioP2;P2;SDS_P1;SDS_P2;PMS_P1;PMS_P2;Temp;Humidity;BMP_temperature;BMP_pressure;BME280_temperature;BME280_humidity;BME280_pressure;Samples;Min_cycle;Max_cycle;Signal;HPM_P1;HPM_P2
2022/07/30 00:01:56;;;;;;;5.45;3.03;;;;;;;;;;5086437;28;20069;-61
2022/07/30 00:04:42;;;;;;;4.50;2.92;;;;;;;;;;5083368;28;20376;-62
2022/07/30 00:07:27;;;;;;;4.05;3.17;;;;;;;;;;5089164;28;20398;-61
2022/07/30 00:10:13;;;;;;;6.38;4.38;;;;;;;;;;5093840;28;20030;-62
2022/07/30 00:12:58;;;;;;;5.95;3.28;;;;;;;;;;5082132;28;20044;-61
2022/07/30 00:15:44;;;;;;;6.18;3.70;;;;;;;;;;5094336;28;20020;-67
2022/07/30 00:18:29;;;;;;;5.43;3.10;;;;;;;;;;5101589;28;20024;-66
2022/07/30 00:21:15;;;;;;;6.15;4.10;;;;;;;;;;5098219;28;20077;-67
2022/07/30 00:24:01;;;;;;;5.75;3.60;;;;;;;;;;5097852;28;20062;-67
2022/07/30 00:26:46;;;;;;;9.35;3.20;;;;;;;;;;5083649;28;20149;-66
2022/07/30 00:29:32;;;;;;;5.65;3.00;;;;;;;;;;5094974;28;20017;-68
2022/07/30 00:32:17;;;;;;;7.07;3.53;;;;;;;;;;5089158;28;20119;-62
2022/07/30 00:35:03;;;;;;;5.15;3.42;;;;;;;;;;5081710;28;20539;-73
2022/07/30 00:37:49;;;;;;;6.22;3.15;;;;;;;;;;5091814;28;20471;-72
2022/07/30 00:40:34;;;;;;;6.53;3.28;;;;;;;;;;5090595;28;20383;-72
2022/07/30 00:43:20;;;;;;;6.43;3.67;;;;;;;;;;5084474;28;20025;-72
2022/07/30 00:46:05;;;;;;;6.13;3.45;;;;;;;;;;5090354;28;20024;-72
2022/07/30 00:48:51;;;;;;;5.70;3.40;;;;;;;;;;5076090;28;20051;-62
2022/07/30 00:51:37;;;;;;;5.57;3.70;;;;;;;;;;5080590;28;20064;-62
2022/07/30 00:54:22;;;;;;;5.30;3.45;;;;;;;;;;5082662;28;20104;-60
2022/07/30 00:57:08;;;;;;;6.53;3.60;;;;;;;;;;5083575;28;20024;-61
2022/07/30 00:59:54;;;;;;;5.65;3.40;;;;;;;;;;5068778;28;20131;-61
2022/07/30 01:02:39;;;;;;;7.55;3.17;;;;;;;;;;5086987;28;20028;-63
2022/07/30 01:05:25;;;;;;;4.50;3.22;;;;;;;;;;5090580;28;20420;-61
2022/07/30 01:08:10;;;;;;;5.40;3.40;;;;;;;;;;5076917;28;20048;-63
2022/07/30 01:10:56;;;;;;;8.10;3.50;;;;;;;;;;5081393;28;20111;-70
2022/07/30 01:13:45;;;;;;;5.90;3.25;;;;;;;;;;5091296;28;20028;-71
2022/07/30 01:16:31;;;;;;;6.18;3.33;;;;;;;;;;5096886;28;20370;-69
2022/07/30 01:22:27;;;;;;;3.45;2.90;;;;;;;;;;5080711;28;20051;-72
2022/07/30 01:25:16;;;;;;;4.13;3.07;;;;;;;;;;5089734;28;20414;-70
2022/07/30 01:28:03;;;;;;;8.32;4.10;;;;;;;;;;5090393;28;20115;-71
2022/07/30 01:30:49;;;;;;;6.13;3.35;;;;;;;;;;5084643;28;20036;-61
2022/07/30 01:33:37;;;;;;;3.67;3.00;;;;;;;;;;5090157;28;20036;-63
2022/07/30 01:36:24;;;;;;;5.32;3.30;;;;;;;;;;5095761;28;20026;-61
2022/07/30 01:39:10;;;;;;;8.32;4.15;;;;;;;;;;5102720;28;20107;-61
2022/07/30 01:41:56;;;;;;;5.35;2.97;;;;;;;;;;5099112;28;20039;-61
2022/07/30 01:44:43;;;;;;;5.75;3.38;;;;;;;;;;5088918;28;20024;-66
2022/07/30 01:47:29;;;;;;;6.05;4.00;;;;;;;;;;5100512;28;20049;-68
2022/07/30 01:50:16;;;;;;;7.55;3.72;;;;;;;;;;5088321;28;20130;-68
2022/07/30 01:53:02;;;;;;;8.35;3.83;;;;;;;;;;5099569;28;20046;-69
2022/07/30 01:55:48;;;;;;;6.60;3.85;;;;;;;;;;5082343;28;20055;-70
2022/07/30 01:58:36;;;;;;;5.65;3.75;;;;;;;;;;5076227;28;20549;-68
2022/07/30 02:01:22;;;;;;;6.38;4.00;;;;;;;;;;5078509;28;20031;-69
2022/07/30 02:04:08;;;;;;;10.73;3.60;;;;;;;;;;5078829;28;20107;-68
2022/07/30 02:06:58;;;;;;;8.77;4.85;;;;;;;;;;5074165;28;20399;-69
2022/07/30 02:09:50;;;;;;;8.48;3.97;;;;;;;;;;5094594;28;20076;-69
2022/07/30 02:12:38;;;;;;;8.93;3.33;;;;;;;;;;5091348;28;20035;-68
2022/07/30 02:15:26;;;;;;;6.03;3.50;;;;;;;;;;5087164;28;20024;-68
2022/07/30 02:18:35;;;;;;;6.35;4.05;;;;;;;;;;5093815;28;20081;-68
2022/07/30 02:21:22;;;;;;;8.75;3.83;;;;;;;;;;5085835;28;20024;-68
2022/07/30 02:24:10;;;;;;;9.20;3.95;;;;;;;;;;5088183;28;20038;-67
2022/07/30 02:27:00;;;;;;;8.25;4.07;;;;;;;;;;5076127;28;20020;-67
2022/07/30 02:29:47;;;;;;;12.38;5.00;;;;;;;;;;5076123;28;20020;-65
2022/07/30 02:32:34;;;;;;;4.72;3.63;;;;;;;;;;5095797;28;20063;-66
2022/07/30 02:35:22;;;;;;;4.68;3.50;;;;;;;;;;5072664;28;20047;-65
2022/07/30 02:38:09;;;;;;;4.47;3.42;;;;;;;;;;5098347;28;20264;-66
2022/07/30 02:40:56;;;;;;;5.45;3.45;;;;;;;;;;5076903;28;20051;-70
2022/07/30 02:43:42;;;;;;;6.30;3.95;;;;;;;;;;5085825;28;20032;-66
2022/07/30 02:46:30;;;;;;;6.93;3.40;;;;;;;;;;5091440;28;20103;-68
2022/07/30 02:49:17;;;;;;;6.78;3.75;;;;;;;;;;5095713;28;20047;-68
2022/07/30 02:52:03;;;;;;;4.57;3.22;;;;;;;;;;5092048;28;20036;-67
2022/07/30 02:54:50;;;;;;;4.53;3.38;;;;;;;;;;5086454;28;20085;-68
2022/07/30 02:57:36;;;;;;;6.88;3.95;;;;;;;;;;5085748;28;20460;-62
2022/07/30 03:00:22;;;;;;;6.03;3.97;;;;;;;;;;5088511;28;20032;-69
2022/07/30 03:03:08;;;;;;;9.93;3.63;;;;;;;;;;5088299;28;20433;-72
2022/07/30 03:05:55;;;;;;;5.68;3.20;;;;;;;;;;5088812;28;20036;-72
2022/07/30 03:08:42;;;;;;;5.03;3.63;;;;;;;;;;5081494;28;20020;-73
2022/07/30 03:11:28;;;;;;;4.57;3.33;;;;;;;;;;5088911;28;20120;-72
2022/07/30 03:14:13;;;;;;;6.63;3.40;;;;;;;;;;5088146;28;20509;-73
2022/07/30 03:17:01;;;;;;;4.97;3.08;;;;;;;;;;5075106;28;20026;-61
2022/07/30 03:19:48;;;;;;;5.28;3.42;;;;;;;;;;5081663;28;20225;-62
2022/07/30 03:22:35;;;;;;;5.22;3.55;;;;;;;;;;5086019;28;20089;-62
2022/07/30 03:25:23;;;;;;;6.72;3.53;;;;;;;;;;5083585;28;20020;-62
2022/07/30 03:28:09;;;;;;;6.38;3.70;;;;;;;;;;5090850;28;20370;-62
2022/07/30 03:30:55;;;;;;;6.30;3.45;;;;;;;;;;5076793;28;20028;-62
2022/07/30 03:33:42;;;;;;;6.20;3.35;;;;;;;;;;5083941;28;20032;-60
2022/07/30 03:36:27;;;;;;;5.18;3.88;;;;;;;;;;5090765;28;20486;-72
2022/07/30 03:39:14;;;;;;;5.32;3.33;;;;;;;;;;5071856;28;20130;-66
2022/07/30 03:42:00;;;;;;;5.13;3.40;;;;;;;;;;5089776;28;20312;-67
2022/07/30 03:44:46;;;;;;;7.80;3.70;;;;;;;;;;5095744;28;20031;-67
2022/07/30 03:47:33;;;;;;;3.70;3.28;;;;;;;;;;5065427;28;20036;-67
2022/07/30 03:50:19;;;;;;;8.60;3.63;;;;;;;;;;5078469;28;20052;-68
2022/07/30 03:53:05;;;;;;;4.40;3.60;;;;;;;;;;5068497;28;20488;-61
2022/07/30 03:55:51;;;;;;;4.60;3.35;;;;;;;;;;5070905;28;20032;-69
2022/07/30 03:58:37;;;;;;;5.93;4.15;;;;;;;;;;5070633;28;20030;-73
2022/07/30 04:01:24;;;;;;;7.28;3.92;;;;;;;;;;5078438;28;20034;-69
2022/07/30 04:04:10;;;;;;;5.90;3.53;;;;;;;;;;5076177;28;20024;-69
2022/07/30 04:06:56;;;;;;;4.65;3.38;;;;;;;;;;5077621;28;20027;-70
2022/07/30 04:09:42;;;;;;;5.47;3.70;;;;;;;;;;5078116;28;20015;-72
2022/07/30 04:12:27;;;;;;;6.07;3.65;;;;;;;;;;5074851;28;20036;-64
2022/07/30 04:15:13;;;;;;;4.32;2.95;;;;;;;;;;5078977;28;20632;-66
2022/07/30 04:18:01;;;;;;;7.93;3.88;;;;;;;;;;5077173;28;20012;-67
2022/07/30 04:20:47;;;;;;;5.18;3.42;;;;;;;;;;5078542;28;20061;-70
2022/07/30 04:23:33;;;;;;;7.40;4.97;;;;;;;;;;5079747;28;20036;-68
2022/07/30 04:26:19;;;;;;;4.05;3.00;;;;;;;;;;5076870;28;20467;-66
2022/07/30 04:29:07;;;;;;;6.50;3.50;;;;;;;;;;5076232;28;20043;-67
2022/07/30 04:31:53;;;;;;;8.35;3.90;;;;;;;;;;5059378;28;20131;-72
2022/07/30 04:34:46;;;;;;;7.65;4.05;;;;;;;;;;5076849;28;20485;-75
2022/07/30 04:37:31;;;;;;;8.38;3.97;;;;;;;;;;5088624;28;20020;-71
2022/07/30 04:40:17;;;;;;;5.75;3.55;;;;;;;;;;5090536;28;20042;-73
2022/07/30 04:43:02;;;;;;;5.60;3.70;;;;;;;;;;5073126;28;20036;-72
2022/07/30 04:45:48;;;;;;;4.18;3.72;;;;;;;;;;5087515;28;20407;-71
2022/07/30 04:48:33;;;;;;;6.13;3.75;;;;;;;;;;5087256;28;20016;-61
2022/07/30 04:51:22;;;;;;;5.50;3.53;;;;;;;;;;5083146;28;20402;-72
2022/07/30 04:54:09;;;;;;;6.57;4.35;;;;;;;;;;5073123;28;20066;-72
2022/07/30 04:56:55;;;;;;;5.30;3.58;;;;;;;;;;5071893;28;20631;-72
2022/07/30 04:59:40;;;;;;;7.38;3.40;;;;;;;;;;5092264;28;20028;-72
2022/07/30 05:02:28;;;;;;;5.03;3.85;;;;;;;;;;5090832;28;20031;-72
2022/07/30 05:05:14;;;;;;;4.15;3.70;;;;;;;;;;5082892;28;20103;-72
2022/07/30 05:08:00;;;;;;;5.68;3.80;;;;;;;;;;5095839;28;20059;-62
2022/07/30 05:10:46;;;;;;;6.05;3.25;;;;;;;;;;5090521;28;20095;-61
2022/07/30 05:13:31;;;;;;;4.50;3.53;;;;;;;;;;5088467;28;20032;-62
2022/07/30 05:16:17;;;;;;;9.77;3.90;;;;;;;;;;5093175;28;20101;-62
2022/07/30 05:19:03;;;;;;;6.63;3.80;;;;;;;;;;5080280;28;20390;-61
2022/07/30 05:21:48;;;;;;;8.75;4.05;;;;;;;;;;5093034;28;20103;-61
2022/07/30 05:24:34;;;;;;;4.78;3.72;;;;;;;;;;5092596;28;20007;-62
2022/07/30 05:27:20;;;;;;;4.90;3.50;;;;;;;;;;5071330;28;20040;-70
2022/07/30 05:30:06;;;;;;;5.88;3.47;;;;;;;;;;5080682;28;20016;-64
2022/07/30 05:32:51;;;;;;;6.75;3.83;;;;;;;;;;5089436;28;20068;-61
2022/07/30 05:35:37;;;;;;;6.35;3.67;;;;;;;;;;5080349;28;20044;-61
2022/07/30 05:38:22;;;;;;;8.00;3.72;;;;;;;;;;5089985;28;20027;-60
2022/07/30 05:41:08;;;;;;;7.13;3.70;;;;;;;;;;5093502;28;20467;-61
2022/07/30 05:43:54;;;;;;;7.72;3.88;;;;;;;;;;5085339;28;20039;-69
2022/07/30 05:46:39;;;;;;;6.50;3.63;;;;;;;;;;5093926;28;20421;-60
2022/07/30 05:49:25;;;;;;;6.38;3.63;;;;;;;;;;5086281;28;20051;-61
2022/07/30 05:52:10;;;;;;;6.68;3.63;;;;;;;;;;5092680;28;20057;-62
2022/07/30 05:54:56;;;;;;;5.07;3.08;;;;;;;;;;5090978;28;20047;-62
2022/07/30 05:57:41;;;;;;;8.02;3.85;;;;;;;;;;5082820;28;20028;-63
2022/07/30 06:00:27;;;;;;;11.27;3.78;;;;;;;;;;5091724;28;20055;-62
2022/07/30 06:03:13;;;;;;;6.40;3.95;;;;;;;;;;5084258;28;20028;-62
2022/07/30 06:05:58;;;;;;;6.10;3.42;;;;;;;;;;5092980;28;20485;-69
2022/07/30 06:08:44;;;;;;;6.75;3.63;;;;;;;;;;5087572;28;20107;-68
2022/07/30 06:11:29;;;;;;;7.38;4.38;;;;;;;;;;5101330;28;20103;-70
2022/07/30 06:14:15;;;;;;;4.43;3.35;;;;;;;;;;5083597;28;20039;-69
2022/07/30 06:17:00;;;;;;;9.68;3.58;;;;;;;;;;5070893;28;20017;-70
2022/07/30 06:19:46;;;;;;;5.50;3.08;;;;;;;;;;5090626;28;20413;-69
2022/07/30 06:22:31;;;;;;;4.50;3.08;;;;;;;;;;5097687;28;20439;-66
2022/07/30 06:25:17;;;;;;;6.60;2.63;;;;;;;;;;5091613;28;20237;-64
2022/07/30 06:28:03;;;;;;;8.90;3.80;;;;;;;;;;5087369;28;20025;-62
2022/07/30 06:30:48;;;;;;;7.15;3.33;;;;;;;;;;5077430;28;20391;-63
2022/07/30 06:33:34;;;;;;;6.03;3.33;;;;;;;;;;5087955;28;20038;-62
2022/07/30 06:36:19;;;;;;;4.07;2.67;;;;;;;;;;5100589;28;20211;-62
2022/07/30 06:39:05;;;;;;;6.70;3.35;;;;;;;;;;5084936;28;20027;-61
2022/07/30 06:41:50;;;;;;;8.27;3.53;;;;;;;;;;5092511;28;20400;-64
2022/07/30 06:44:36;;;;;;;6.95;2.95;;;;;;;;;;5081641;28;20020;-62
2022/07/30 06:47:25;;;;;;;5.97;3.45;;;;;;;;;;5084841;28;20119;-62
2022/07/30 06:50:10;;;;;;;9.70;3.83;;;;;;;;;;5082433;28;20044;-63
2022/07/30 06:52:56;;;;;;;6.57;3.38;;;;;;;;;;5084398;28;20064;-62
2022/07/30 06:55:41;;;;;;;4.50;2.65;;;;;;;;;;5092132;28;20148;-62
2022/07/30 06:58:28;;;;;;;6.45;2.95;;;;;;;;;;5089401;28;20312;-61
2022/07/30 07:01:13;;;;;;;5.72;3.40;;;;;;;;;;5089900;28;20017;-69
2022/07/30 07:03:59;;;;;;;8.13;2.92;;;;;;;;;;5071089;28;20031;-70
2022/07/30 07:06:44;;;;;;;5.90;3.28;;;;;;;;;;5079394;28;20035;-70
2022/07/30 07:09:30;;;;;;;6.18;2.92;;;;;;;;;;5091028;28;20081;-69
2022/07/30 07:12:15;;;;;;;7.13;2.67;;;;;;;;;;5091196;28;20119;-70
2022/07/30 07:15:01;;;;;;;6.65;3.33;;;;;;;;;;5088983;28;20509;-69
2022/07/30 07:17:47;;;;;;;6.18;3.00;;;;;;;;;;5094719;28;20027;-73
2022/07/30 07:20:33;;;;;;;7.15;3.40;;;;;;;;;;5089146;28;20027;-69
2022/07/30 07:23:19;;;;;;;5.93;2.83;;;;;;;;;;5084977;28;20098;-69
2022/07/30 07:26:04;;;;;;;7.18;2.83;;;;;;;;;;5085900;28;20497;-70
2022/07/30 07:28:50;;;;;;;3.85;2.70;;;;;;;;;;5085051;28;20024;-72
2022/07/30 07:31:35;;;;;;;6.68;3.22;;;;;;;;;;5087502;28;20469;-74
2022/07/30 07:34:21;;;;;;;4.70;3.33;;;;;;;;;;5077866;28;20028;-77
2022/07/30 07:37:06;;;;;;;7.18;2.97;;;;;;;;;;5091136;28;20056;-66
2022/07/30 07:39:52;;;;;;;6.72;3.38;;;;;;;;;;5071929;28;20055;-67
2022/07/30 07:42:37;;;;;;;9.98;3.60;;;;;;;;;;5080053;28;20055;-67
2022/07/30 07:45:23;;;;;;;9.57;3.22;;;;;;;;;;5079822;28;20552;-65
2022/07/30 07:48:09;;;;;;;5.35;2.65;;;;;;;;;;5085536;28;20119;-66
2022/07/30 07:50:54;;;;;;;5.55;2.95;;;;;;;;;;5079537;28;20140;-65
2022/07/30 07:53:40;;;;;;;8.43;3.20;;;;;;;;;;5091309;28;20047;-64
2022/07/30 07:56:25;;;;;;;4.32;2.67;;;;;;;;;;5081783;28;20028;-65
2022/07/30 07:59:11;;;;;;;6.30;2.85;;;;;;;;;;5089356;28;20075;-64
2022/07/30 08:01:56;;;;;;;6.93;2.40;;;;;;;;;;5085502;28;20032;-69
2022/07/30 08:04:42;;;;;;;8.30;2.83;;;;;;;;;;5084575;28;20024;-66
2022/07/30 08:07:28;;;;;;;6.57;2.90;;;;;;;;;;5096565;28;20024;-64
2022/07/30 08:10:14;;;;;;;3.72;2.63;;;;;;;;;;5090546;28;20134;-62
2022/07/30 08:13:02;;;;;;;6.65;2.95;;;;;;;;;;5079651;28;20024;-63
2022/07/30 08:15:48;;;;;;;3.90;2.30;;;;;;;;;;5093964;28;20023;-62
2022/07/30 08:18:35;;;;;;;3.97;2.47;;;;;;;;;;5088685;28;20020;-59
2022/07/30 08:21:20;;;;;;;5.05;2.70;;;;;;;;;;5080080;28;20360;-60
2022/07/30 08:24:06;;;;;;;3.88;2.53;;;;;;;;;;5078404;28;20020;-61
2022/07/30 08:26:52;;;;;;;5.82;2.33;;;;;;;;;;5076872;28;20031;-60
2022/07/30 08:29:37;;;;;;;5.80;2.33;;;;;;;;;;5062605;28;20089;-60
2022/07/30 08:32:23;;;;;;;5.95;2.47;;;;;;;;;;5093018;28;20028;-64
2022/07/30 08:35:08;;;;;;;6.63;2.75;;;;;;;;;;5079053;28;20366;-64
2022/07/30 08:37:54;;;;;;;3.42;2.58;;;;;;;;;;5074735;28;20082;-64
2022/07/30 08:40:40;;;;;;;9.23;2.85;;;;;;;;;;5089269;28;20024;-65
2022/07/30 08:43:25;;;;;;;6.13;2.38;;;;;;;;;;5090218;28;20027;-65
2022/07/30 08:46:12;;;;;;;6.85;2.70;;;;;;;;;;5056088;28;20020;-61
2022/07/30 08:48:58;;;;;;;9.23;4.38;;;;;;;;;;5074869;28;20498;-63
2022/07/30 08:51:43;;;;;;;5.25;2.30;;;;;;;;;;5082682;28;20056;-63
2022/07/30 08:54:29;;;;;;;5.32;2.30;;;;;;;;;;5064066;28;20029;-61
2022/07/30 08:57:15;;;;;;;11.25;3.88;;;;;;;;;;5091136;28;20157;-61
2022/07/30 09:00:00;;;;;;;6.40;2.35;;;;;;;;;;5095330;28;20027;-62
2022/07/30 09:02:46;;;;;;;6.13;2.92;;;;;;;;;;5068844;28;20028;-62
2022/07/30 09:05:33;;;;;;;6.03;2.70;;;;;;;;;;5079044;28;20020;-62
2022/07/30 09:08:19;;;;;;;4.90;2.47;;;;;;;;;;5078156;28;20103;-67
2022/07/30 09:11:04;;;;;;;6.43;3.22;;;;;;;;;;5084818;28;20158;-72
2022/07/30 09:13:50;;;;;;;11.45;2.92;;;;;;;;;;5083573;28;20067;-73
2022/07/30 09:16:36;;;;;;;7.53;3.30;;;;;;;;;;5081448;28;20032;-73
2022/07/30 09:19:21;;;;;;;5.82;2.40;;;;;;;;;;5089996;28;20041;-72
2022/07/30 09:22:07;;;;;;;3.67;2.25;;;;;;;;;;5088397;28;20028;-72
2022/07/30 09:24:52;;;;;;;5.88;2.58;;;;;;;;;;5090730;28;20028;-63
2022/07/30 09:27:48;;;;;;;6.03;2.28;;;;;;;;;;5081077;28;20028;-67
2022/07/30 09:30:50;;;;;;;4.97;2.78;;;;;;;;;;5084153;28;20132;-63
2022/07/30 09:33:40;;;;;;;6.97;2.28;;;;;;;;;;5082068;28;20034;-65
2022/07/30 09:36:29;;;;;;;4.18;2.05;;;;;;;;;;5082771;28;20339;-65
2022/07/30 09:39:26;;;;;;;6.70;2.10;;;;;;;;;;5085712;28;20024;-62
2022/07/30 09:42:17;;;;;;;6.07;2.13;;;;;;;;;;5070933;28;20024;-66
2022/07/30 09:45:07;;;;;;;5.05;2.10;;;;;;;;;;5084523;28;20031;-75
2022/07/30 09:47:52;;;;;;;2.38;1.80;;;;;;;;;;5086925;28;20495;-78
2022/07/30 09:50:46;;;;;;;3.58;2.60;;;;;;;;;;5059428;28;20040;-79
2022/07/30 09:53:32;;;;;;;4.28;2.20;;;;;;;;;;5070104;28;20037;-79
2022/07/30 09:56:25;;;;;;;4.70;2.05;;;;;;;;;;5085666;28;20027;-80
2022/07/30 09:59:30;;;;;;;5.38;2.03;;;;;;;;;;5070872;28;20066;-78
2022/07/30 10:02:16;;;;;;;6.35;2.22;;;;;;;;;;5090693;28;20049;-80
2022/07/30 10:05:11;;;;;;;3.47;2.08;;;;;;;;;;5089638;27;20012;-74
2022/07/30 10:07:58;;;;;;;4.15;1.83;;;;;;;;;;5079309;28;20021;-74
2022/07/30 10:10:44;;;;;;;3.65;2.75;;;;;;;;;;5094350;28;20024;-73
2022/07/30 10:13:31;;;;;;;3.75;1.70;;;;;;;;;;5077433;28;20032;-72
2022/07/30 10:16:17;;;;;;;8.15;2.05;;;;;;;;;;5089257;28;20020;-73
2022/07/30 10:19:03;;;;;;;3.30;1.60;;;;;;;;;;5080535;28;20054;-72
2022/07/30 10:21:49;;;;;;;3.35;1.77;;;;;;;;;;5074975;28;20070;-74
2022/07/30 10:24:35;;;;;;;5.95;1.90;;;;;;;;;;5088628;28;20032;-66
2022/07/30 10:27:21;;;;;;;5.65;1.98;;;;;;;;;;5091057;28;20024;-69
2022/07/30 10:30:07;;;;;;;2.15;1.90;;;;;;;;;;5086883;28;20020;-70
2022/07/30 10:32:52;;;;;;;5.65;1.80;;;;;;;;;;5086932;28;20559;-68
2022/07/30 10:35:38;;;;;;;3.72;1.40;;;;;;;;;;5077524;28;20027;-66
2022/07/30 10:38:31;;;;;;;8.88;2.65;;;;;;;;;;5090814;28;20119;-70
2022/07/30 10:41:34;;;;;;;4.95;1.83;;;;;;;;;;5088782;28;20036;-70
2022/07/30 10:44:37;;;;;;;2.75;2.00;;;;;;;;;;5090444;28;20028;-69
2022/07/30 10:47:24;;;;;;;2.15;1.50;;;;;;;;;;5074791;28;20031;-72
2022/07/30 10:50:12;;;;;;;2.90;2.00;;;;;;;;;;5087005;28;20047;-71
2022/07/30 10:53:00;;;;;;;4.95;1.90;;;;;;;;;;5080784;28;20036;-73
2022/07/30 10:56:05;;;;;;;2.95;1.70;;;;;;;;;;5077857;28;20130;-72
2022/07/30 10:59:09;;;;;;;4.68;1.60;;;;;;;;;;5080767;28;20565;-61
2022/07/30 11:01:57;;;;;;;3.47;1.50;;;;;;;;;;5093428;28;20032;-66
2022/07/30 11:04:43;;;;;;;4.03;1.73;;;;;;;;;;5073366;28;20471;-70
2022/07/30 11:07:30;;;;;;;4.07;1.63;;;;;;;;;;5082974;28;20246;-69
2022/07/30 11:10:35;;;;;;;2.47;1.35;;;;;;;;;;5087640;28;20598;-67
2022/07/30 11:13:53;;;;;;;4.93;1.65;;;;;;;;;;5085238;28;20024;-67
2022/07/30 11:16:38;;;;;;;3.53;1.90;;;;;;;;;;5078896;28;20024;-61
2022/07/30 11:19:25;;;;;;;4.53;1.95;;;;;;;;;;5081971;28;20436;-67
2022/07/30 11:22:34;;;;;;;2.35;1.58;;;;;;;;;;5089543;28;20024;-62
2022/07/30 11:25:20;;;;;;;4.47;1.98;;;;;;;;;;5085647;28;20107;-61
2022/07/30 11:28:05;;;;;;;4.85;1.92;;;;;;;;;;5091172;28;20028;-62
2022/07/30 11:30:52;;;;;;;4.00;2.17;;;;;;;;;;5081355;28;20024;-61
2022/07/30 11:33:38;;;;;;;3.58;1.90;;;;;;;;;;5098929;27;20046;-65
2022/07/30 11:36:23;;;;;;;2.53;1.58;;;;;;;;;;5088831;28;20016;-65
2022/07/30 11:39:09;;;;;;;7.18;2.90;;;;;;;;;;5082605;28;20101;-69
2022/07/30 11:42:13;;;;;;;3.33;2.67;;;;;;;;;;5081084;28;20031;-67
2022/07/30 11:45:14;;;;;;;12.68;8.85;;;;;;;;;;5079753;28;20028;-66
2022/07/30 11:47:59;;;;;;;3.33;2.47;;;;;;;;;;5084667;28;20123;-65
2022/07/30 11:50:46;;;;;;;22.15;15.70;;;;;;;;;;5087555;28;20119;-67
2022/07/30 11:53:31;;;;;;;32.33;20.35;;;;;;;;;;5082722;28;20032;-69
2022/07/30 11:56:17;;;;;;;5.22;2.70;;;;;;;;;;5087273;28;20479;-61
2022/07/30 11:59:06;;;;;;;7.43;3.50;;;;;;;;;;5082154;28;20032;-60
2022/07/30 12:01:55;;;;;;;9.05;5.30;;;;;;;;;;5086550;28;20028;-60
2022/07/30 12:04:44;;;;;;;16.15;9.07;;;;;;;;;;5072485;28;20024;-60
2022/07/30 12:07:29;;;;;;;11.45;5.78;;;;;;;;;;5091540;28;20035;-59
2022/07/30 12:10:16;;;;;;;12.27;6.28;;;;;;;;;;5073630;28;20028;-60
2022/07/30 12:13:11;;;;;;;9.90;5.53;;;;;;;;;;5083958;28;20036;-62
2022/07/30 12:15:57;;;;;;;6.40;2.63;;;;;;;;;;5089360;28;20024;-61
2022/07/30 12:18:43;;;;;;;5.90;3.35;;;;;;;;;;5100159;28;20127;-60
2022/07/30 12:21:29;;;;;;;8.93;4.22;;;;;;;;;;5089845;28;20027;-61
2022/07/30 12:24:15;;;;;;;5.18;3.33;;;;;;;;;;5085647;28;20024;-66
2022/07/30 12:27:04;;;;;;;2.47;1.40;;;;;;;;;;5083246;28;20020;-63
2022/07/30 12:29:50;;;;;;;3.97;1.52;;;;;;;;;;5089759;28;20020;-61
2022/07/30 12:32:36;;;;;;;18.38;6.05;;;;;;;;;;5084289;28;20191;-69
2022/07/30 12:35:22;;;;;;;7.22;3.83;;;;;;;;;;5080575;28;20020;-68
2022/07/30 12:38:07;;;;;;;3.20;1.45;;;;;;;;;;5078796;28;20540;-72
2022/07/30 12:40:57;;;;;;;5.90;2.70;;;;;;;;;;5075800;28;20063;-72
2022/07/30 12:43:44;;;;;;;7.22;2.97;;;;;;;;;;5070735;28;20024;-67
2022/07/30 12:46:35;;;;;;;3.97;3.10;;;;;;;;;;5077005;28;20020;-69
2022/07/30 12:49:27;;;;;;;4.78;2.50;;;;;;;;;;5073862;28;20055;-59
2022/07/30 12:52:23;;;;;;;3.33;2.33;;;;;;;;;;5070688;28;20509;-67
2022/07/30 12:55:10;;;;;;;5.15;2.67;;;;;;;;;;5081730;28;20052;-64
2022/07/30 12:58:00;;;;;;;7.88;4.18;;;;;;;;;;5080062;28;20126;-64
2022/07/30 13:00:49;;;;;;;1.90;1.60;;;;;;;;;;5078291;28;20024;-66
2022/07/30 13:03:38;;;;;;;5.07;2.67;;;;;;;;;;5079259;28;20333;-65
2022/07/30 13:06:24;;;;;;;4.20;1.80;;;;;;;;;;5082879;28;20501;-66
2022/07/30 13:09:19;;;;;;;5.95;3.63;;;;;;;;;;5082963;28;20379;-64
2022/07/30 13:12:05;;;;;;;4.88;2.42;;;;;;;;;;5077931;28;20021;-63
2022/07/30 13:14:51;;;;;;;7.65;3.85;;;;;;;;;;5072931;28;20393;-65
2022/07/30 13:17:36;;;;;;;6.00;3.50;;;;;;;;;;5078392;28;20069;-66
2022/07/30 13:20:22;;;;;;;8.13;2.92;;;;;;;;;;5090345;28;20047;-65
2022/07/30 13:23:07;;;;;;;5.03;2.00;;;;;;;;;;5075212;28;20028;-64
2022/07/30 13:25:53;;;;;;;8.10;3.20;;;;;;;;;;5078417;28;20035;-64
2022/07/30 13:28:39;;;;;;;3.28;2.10;;;;;;;;;;5080135;28;20483;-66
2022/07/30 13:31:25;;;;;;;8.30;2.08;;;;;;;;;;5091291;28;20023;-63
2022/07/30 13:34:10;;;;;;;8.73;4.13;;;;;;;;;;5093200;28;20045;-64
2022/07/30 13:36:56;;;;;;;4.65;1.90;;;;;;;;;;5088978;28;20020;-64
2022/07/30 13:39:42;;;;;;;6.20;3.53;;;;;;;;;;5082448;28;20045;-63
2022/07/30 13:42:27;;;;;;;4.22;2.47;;;;;;;;;;5088888;28;20054;-63
2022/07/30 13:45:13;;;;;;;4.95;2.60;;;;;;;;;;5088084;28;20024;-65
2022/07/30 13:47:58;;;;;;;3.25;1.85;;;;;;;;;;5083232;28;20029;-64
2022/07/30 13:50:44;;;;;;;3.38;2.03;;;;;;;;;;5082216;28;20143;-65
2022/07/30 13:53:30;;;;;;;4.57;2.35;;;;;;;;;;5078664;28;20146;-65
2022/07/30 13:56:16;;;;;;;2.72;1.88;;;;;;;;;;5080217;28;20498;-67
2022/07/30 13:59:01;;;;;;;2.63;1.70;;;;;;;;;;5078233;28;20044;-67
2022/07/30 14:01:47;;;;;;;2.83;2.40;;;;;;;;;;5081233;28;20035;-61
2022/07/30 14:04:32;;;;;;;6.80;3.20;;;;;;;;;;5077450;28;20047;-60
2022/07/30 14:07:18;;;;;;;3.90;2.42;;;;;;;;;;5077976;28;20184;-62
2022/07/30 14:10:05;;;;;;;4.90;2.15;;;;;;;;;;5079161;27;20027;-61
2022/07/30 14:12:53;;;;;;;2.92;2.20;;;;;;;;;;5079604;28;20048;-60
2022/07/30 14:15:39;;;;;;;4.38;2.20;;;;;;;;;;5078507;28;20016;-60
2022/07/30 14:18:25;;;;;;;2.97;1.80;;;;;;;;;;5081944;28;20032;-61
2022/07/30 14:21:10;;;;;;;2.75;1.50;;;;;;;;;;5078826;28;20037;-71
2022/07/30 14:23:56;;;;;;;3.15;1.90;;;;;;;;;;5081507;28;20032;-60
2022/07/30 14:26:42;;;;;;;5.30;1.52;;;;;;;;;;5086245;28;20032;-60
2022/07/30 14:29:28;;;;;;;3.63;2.20;;;;;;;;;;5074714;28;20028;-61
2022/07/30 14:32:13;;;;;;;4.20;3.08;;;;;;;;;;5085848;28;20027;-60
2022/07/30 14:34:59;;;;;;;3.60;2.25;;;;;;;;;;5071607;28;20019;-62
2022/07/30 14:37:45;;;;;;;4.72;2.45;;;;;;;;;;5089174;28;20024;-63
2022/07/30 14:40:30;;;;;;;2.72;1.85;;;;;;;;;;5087814;28;20115;-64
2022/07/30 14:43:18;;;;;;;4.47;2.30;;;;;;;;;;5090279;28;20028;-62
2022/07/30 14:46:03;;;;;;;4.63;2.10;;;;;;;;;;5086339;28;20031;-62
2022/07/30 14:48:49;;;;;;;5.75;2.45;;;;;;;;;;5090387;28;20020;-62
2022/07/30 14:51:36;;;;;;;2.40;1.52;;;;;;;;;;5089504;28;20054;-64
2022/07/30 14:54:21;;;;;;;1.67;1.45;;;;;;;;;;5089899;28;20030;-61
2022/07/30 14:57:08;;;;;;;3.63;1.98;;;;;;;;;;5074379;28;20106;-60
2022/07/30 14:59:54;;;;;;;4.03;1.65;;;;;;;;;;5082639;28;20028;-61
2022/07/30 15:02:40;;;;;;;2.92;2.35;;;;;;;;;;5085021;28;20023;-60
2022/07/30 15:05:25;;;;;;;3.53;1.90;;;;;;;;;;5077088;28;20028;-60
2022/07/30 15:08:11;;;;;;;3.90;2.15;;;;;;;;;;5093922;28;20046;-63
2022/07/30 15:10:56;;;;;;;1.75;1.58;;;;;;;;;;5085278;28;20024;-62
2022/07/30 15:13:42;;;;;;;3.95;1.92;;;;;;;;;;5069818;28;20053;-62
2022/07/30 15:16:27;;;;;;;4.07;1.83;;;;;;;;;;5080609;28;20032;-60
2022/07/30 15:19:13;;;;;;;3.58;2.33;;;;;;;;;;5088685;28;20181;-64
2022/07/30 15:22:00;;;;;;;3.90;1.70;;;;;;;;;;5085675;28;20093;-67
2022/07/30 15:24:46;;;;;;;5.68;2.92;;;;;;;;;;5080348;28;20020;-66
2022/07/30 15:27:31;;;;;;;4.90;2.10;;;;;;;;;;5073632;28;20028;-64
2022/07/30 15:30:18;;;;;;;2.85;1.92;;;;;;;;;;5088273;28;20023;-63
2022/07/30 15:33:03;;;;;;;3.17;2.30;;;;;;;;;;5069860;28;20427;-62
2022/07/30 15:35:49;;;;;;;4.75;2.00;;;;;;;;;;5074221;28;20020;-70
2022/07/30 15:38:35;;;;;;;3.60;1.67;;;;;;;;;;5086908;28;20189;-68
2022/07/30 15:41:20;;;;;;;1.67;1.40;;;;;;;;;;5089995;28;20012;-67
2022/07/30 15:44:06;;;;;;;2.90;2.00;;;;;;;;;;5082724;28;20068;-67
2022/07/30 15:46:52;;;;;;;3.88;2.13;;;;;;;;;;5080273;28;20036;-67
2022/07/30 15:49:37;;;;;;;3.03;1.90;;;;;;;;;;5076599;28;20543;-70
2022/07/30 15:52:23;;;;;;;2.85;1.50;;;;;;;;;;5076253;28;20082;-61
2022/07/30 15:55:09;;;;;;;3.03;1.63;;;;;;;;;;5080388;28;20055;-62
2022/07/30 15:57:55;;;;;;;2.33;1.70;;;;;;;;;;5072220;28;20527;-61
2022/07/30 16:00:41;;;;;;;2.40;1.52;;;;;;;;;;5090680;28;20019;-74
2022/07/30 16:03:26;;;;;;;4.72;1.95;;;;;;;;;;5074719;28;20019;-75
2022/07/30 16:06:13;;;;;;;11.75;9.75;;;;;;;;;;5064677;28;20459;-74
2022/07/30 16:08:59;;;;;;;93.75;83.93;;;;;;;;;;5083368;28;20027;-76
2022/07/30 16:11:44;;;;;;;16.23;12.65;;;;;;;;;;5079654;28;20024;-73
2022/07/30 16:14:30;;;;;;;12.20;7.50;;;;;;;;;;5089877;28;20425;-83
2022/07/30 16:17:15;;;;;;;4.88;1.90;;;;;;;;;;5077334;28;20017;-84
2022/07/30 16:20:02;;;;;;;3.45;1.63;;;;;;;;;;5086242;28;20024;-84
2022/07/30 16:22:48;;;;;;;4.30;1.80;;;;;;;;;;5104882;28;20488;-85
2022/07/30 16:25:33;;;;;;;2.70;1.63;;;;;;;;;;5087598;28;20093;-84
2022/07/30 16:28:19;;;;;;;3.20;1.70;;;;;;;;;;5075898;28;20475;-74
2022/07/30 16:31:05;;;;;;;2.72;1.30;;;;;;;;;;5083108;28;20523;-74
2022/07/30 16:33:50;;;;;;;4.07;2.15;;;;;;;;;;5087508;28;20051;-75
2022/07/30 16:36:36;;;;;;;4.15;2.13;;;;;;;;;;5080050;28;20016;-72
2022/07/30 16:39:21;;;;;;;4.72;2.70;;;;;;;;;;5082533;28;20020;-74
2022/07/30 16:42:07;;;;;;;5.57;1.98;;;;;;;;;;5075047;28;20455;-74
2022/07/30 16:44:52;;;;;;;1.50;1.20;;;;;;;;;;5062717;28;20024;-74